Terminal Aerodrome Forecast
Issued by NWS

Home | Current Version | Previous Version | Text Only | Print | Product List | Glossary Off
Versions: 1 2 3 4 5 6 7 8 9 10 11 12 13 14 15 16 17 18 19 20

000
FTUS41 KCLE 170900 AAA
TAFFDY
TAF AMD
KFDY 170918Z 1709/1806 24005KT 4SM BR SCT030 BKN050
      TEMPO 1711/1713 1SM BR BKN006
     FM171300 31005KT P6SM VCSH SCT012 BKN025
     FM171600 05005KT P6SM VCSH BKN035=

USA.gov is the U.S. government's official web portal to all federal, state and local government web resources and services.